Time;durP1;ratioP1;P1;durP2;ratioP2;P2;SDS_P1;SDS_P2;PMS_P1;PMS_P2;Temp;Humidity;BMP_temperature;BMP_pressure;BME280_temperature;BME280_humidity;BME280_pressure;Samples;Min_cycle;Max_cycle;Signal;HPM_P1;HPM_P2
2023/07/24 00:00:47;;;;;;;1.87;1.63;;;;;;;;;;8240485;28;20034;-70
2023/07/24 00:04:47;;;;;;;1.60;1.50;;;;;;;;;;8241303;28;20027;-69
2023/07/24 00:08:47;;;;;;;3.23;1.67;;;;;;;;;;8243747;28;20015;-70
2023/07/24 00:12:47;;;;;;;2.80;1.60;;;;;;;;;;8244117;28;20037;-70
2023/07/24 00:16:48;;;;;;;1.83;1.57;;;;;;;;;;8242868;28;20031;-70
2023/07/24 00:20:48;;;;;;;1.60;1.50;;;;;;;;;;8241909;28;20057;-70
2023/07/24 00:24:48;;;;;;;1.77;1.60;;;;;;;;;;8242691;28;20026;-70
2023/07/24 00:28:48;;;;;;;1.73;1.42;;;;;;;;;;8241720;28;20034;-70
2023/07/24 00:32:48;;;;;;;1.70;1.60;;;;;;;;;;8242833;28;20046;-71
2023/07/24 00:36:49;;;;;;;3.10;1.63;;;;;;;;;;8239121;28;20029;-70
2023/07/24 00:40:49;;;;;;;1.85;1.67;;;;;;;;;;8243624;28;20073;-71
2023/07/24 00:44:50;;;;;;;2.15;1.50;;;;;;;;;;8240252;28;20483;-70
2023/07/24 00:48:50;;;;;;;2.63;1.73;;;;;;;;;;8241139;28;20041;-70
2023/07/24 00:52:51;;;;;;;1.98;1.77;;;;;;;;;;8241205;28;20105;-70
2023/07/24 00:56:51;;;;;;;2.20;1.60;;;;;;;;;;8241042;28;20033;-70
2023/07/24 01:00:51;;;;;;;3.03;1.67;;;;;;;;;;8238349;28;20280;-70
2023/07/24 01:04:52;;;;;;;2.20;1.50;;;;;;;;;;8240678;28;20028;-71
2023/07/24 01:08:52;;;;;;;1.90;1.67;;;;;;;;;;8238484;28;20802;-71
2023/07/24 01:12:55;;;;;;;3.37;1.83;;;;;;;;;;8238075;28;20030;-71
2023/07/24 01:16:55;;;;;;;2.03;1.50;;;;;;;;;;8236941;28;20035;-71
2023/07/24 01:20:57;;;;;;;2.17;1.85;;;;;;;;;;8241915;28;20149;-70
2023/07/24 01:25:16;;;;;;;3.55;1.80;;;;;;;;;;8239280;28;20871;-71
2023/07/24 01:29:16;;;;;;;1.60;1.50;;;;;;;;;;8236415;28;20103;-71
2023/07/24 01:33:16;;;;;;;3.72;1.60;;;;;;;;;;8238564;28;20121;-71
2023/07/24 01:37:16;;;;;;;3.80;1.60;;;;;;;;;;8235111;28;20030;-71
2023/07/24 01:41:17;;;;;;;2.53;1.70;;;;;;;;;;8229650;28;20022;-71
2023/07/24 01:45:17;;;;;;;1.75;1.65;;;;;;;;;;8237451;28;20026;-71
2023/07/24 01:49:17;;;;;;;1.67;1.58;;;;;;;;;;8237762;28;20109;-71
2023/07/24 01:53:17;;;;;;;1.70;1.60;;;;;;;;;;8234953;28;20073;-71
2023/07/24 01:57:17;;;;;;;1.65;1.55;;;;;;;;;;8236352;28;20026;-71
2023/07/24 02:01:18;;;;;;;1.83;1.73;;;;;;;;;;8236030;28;20102;-71
2023/07/24 02:05:18;;;;;;;1.55;1.45;;;;;;;;;;8238417;28;20108;-71
2023/07/24 02:09:18;;;;;;;1.77;1.67;;;;;;;;;;8238215;28;20042;-70
2023/07/24 02:13:18;;;;;;;3.40;1.58;;;;;;;;;;8236931;28;20038;-71
2023/07/24 02:17:19;;;;;;;2.80;1.75;;;;;;;;;;8238449;28;20026;-71
2023/07/24 02:21:19;;;;;;;2.72;1.98;;;;;;;;;;8238047;28;20073;-71
2023/07/24 02:25:20;;;;;;;3.38;2.33;;;;;;;;;;8236062;28;20037;-70
2023/07/24 02:29:22;;;;;;;2.10;1.90;;;;;;;;;;8229472;28;20169;-71
2023/07/24 02:33:22;;;;;;;3.25;2.45;;;;;;;;;;8222024;28;20034;-71
2023/07/24 02:37:23;;;;;;;3.28;2.30;;;;;;;;;;8238321;28;20033;-71
2023/07/24 02:41:23;;;;;;;3.63;2.43;;;;;;;;;;8234322;28;20033;-71
2023/07/24 02:45:23;;;;;;;2.78;2.22;;;;;;;;;;8238465;28;20046;-71
2023/07/24 02:49:24;;;;;;;4.35;2.10;;;;;;;;;;8238355;28;20041;-70
2023/07/24 02:53:24;;;;;;;2.40;2.20;;;;;;;;;;8235615;28;20379;-71
2023/07/24 02:57:25;;;;;;;3.30;2.53;;;;;;;;;;8236449;28;20106;-71
2023/07/24 03:01:25;;;;;;;2.50;2.30;;;;;;;;;;8226352;28;20042;-71
2023/07/24 03:05:25;;;;;;;3.75;2.60;;;;;;;;;;8220625;28;20105;-71
2023/07/24 03:09:25;;;;;;;2.47;2.28;;;;;;;;;;8239829;28;20018;-71
2023/07/24 03:13:26;;;;;;;2.35;2.15;;;;;;;;;;8243075;28;20745;-70
2023/07/24 03:17:26;;;;;;;3.27;2.40;;;;;;;;;;8241347;28;20581;-71
2023/07/24 03:21:26;;;;;;;2.88;2.15;;;;;;;;;;8243882;28;20033;-71
2023/07/24 03:25:26;;;;;;;2.20;1.95;;;;;;;;;;8241099;28;20080;-72
2023/07/24 03:29:27;;;;;;;2.10;1.90;;;;;;;;;;8242938;28;20521;-71
2023/07/24 03:33:27;;;;;;;3.60;2.30;;;;;;;;;;8241608;28;20160;-71
2023/07/24 03:37:28;;;;;;;2.97;2.17;;;;;;;;;;8242001;28;20061;-71
2023/07/24 03:41:28;;;;;;;2.20;2.00;;;;;;;;;;8243320;28;20029;-71
2023/07/24 03:45:28;;;;;;;2.58;2.03;;;;;;;;;;8242659;28;20060;-71
2023/07/24 03:49:28;;;;;;;2.45;1.83;;;;;;;;;;8241884;28;20029;-71
2023/07/24 03:53:29;;;;;;;4.07;1.90;;;;;;;;;;8242921;28;20022;-71
2023/07/24 03:57:29;;;;;;;3.58;2.10;;;;;;;;;;8243313;28;20057;-71
2023/07/24 04:01:29;;;;;;;1.88;1.75;;;;;;;;;;8221347;28;20887;-71
2023/07/24 04:05:29;;;;;;;4.90;2.20;;;;;;;;;;8239663;28;20096;-71
2023/07/24 04:09:30;;;;;;;2.80;1.90;;;;;;;;;;8220334;28;20049;-71
2023/07/24 04:13:30;;;;;;;3.40;1.70;;;;;;;;;;8222515;28;20030;-71
2023/07/24 04:17:30;;;;;;;1.77;1.67;;;;;;;;;;8237740;28;20035;-70
2023/07/24 04:21:30;;;;;;;1.80;1.63;;;;;;;;;;8241839;28;20034;-71
2023/07/24 04:25:30;;;;;;;2.25;2.05;;;;;;;;;;8236883;28;20128;-71
2023/07/24 04:29:31;;;;;;;2.30;2.10;;;;;;;;;;8241533;28;20040;-71
2023/07/24 04:33:31;;;;;;;3.97;2.08;;;;;;;;;;8237840;28;20050;-71
2023/07/24 04:37:31;;;;;;;1.90;1.80;;;;;;;;;;8237921;28;20084;-71
2023/07/24 04:41:31;;;;;;;3.50;2.50;;;;;;;;;;8239729;28;20019;-71
2023/07/24 04:45:31;;;;;;;3.35;2.50;;;;;;;;;;8235361;28;20784;-72
2023/07/24 04:49:32;;;;;;;3.10;2.40;;;;;;;;;;8237573;28;20059;-72
2023/07/24 04:53:33;;;;;;;4.32;2.60;;;;;;;;;;8237454;28;20034;-71
2023/07/24 04:57:33;;;;;;;3.40;2.67;;;;;;;;;;8239967;28;20029;-71
2023/07/24 05:01:33;;;;;;;3.20;2.55;;;;;;;;;;8237484;28;20435;-72
2023/07/24 05:05:33;;;;;;;3.30;2.60;;;;;;;;;;8221342;28;20633;-72
2023/07/24 05:09:33;;;;;;;2.33;2.13;;;;;;;;;;8236344;28;20029;-71
2023/07/24 05:13:34;;;;;;;4.43;2.63;;;;;;;;;;8238482;28;20034;-71
2023/07/24 05:17:34;;;;;;;3.78;2.80;;;;;;;;;;8220898;28;20064;-71
2023/07/24 05:21:37;;;;;;;3.63;2.53;;;;;;;;;;8241567;28;20064;-72
2023/07/24 05:25:37;;;;;;;5.95;2.65;;;;;;;;;;8239796;28;20030;-72
2023/07/24 05:29:37;;;;;;;10.07;2.93;;;;;;;;;;8241318;28;20041;-72
2023/07/24 05:33:37;;;;;;;11.63;2.70;;;;;;;;;;8237460;28;20054;-71
2023/07/24 05:37:38;;;;;;;11.88;2.60;;;;;;;;;;8239938;28;20042;-71
2023/07/24 05:41:38;;;;;;;7.97;2.50;;;;;;;;;;8242708;28;20791;-71
2023/07/24 05:45:38;;;;;;;10.35;2.63;;;;;;;;;;8223414;28;20138;-71
2023/07/24 05:49:38;;;;;;;3.25;2.35;;;;;;;;;;8241071;28;20029;-71
2023/07/24 05:53:39;;;;;;;4.72;2.15;;;;;;;;;;8238696;28;20172;-70
2023/07/24 05:57:39;;;;;;;2.55;2.10;;;;;;;;;;8242150;28;20715;-70
2023/07/24 06:01:39;;;;;;;3.10;2.50;;;;;;;;;;8239566;28;20038;-70
2023/07/24 06:05:39;;;;;;;5.53;2.20;;;;;;;;;;8239438;28;20273;-71
2023/07/24 06:09:39;;;;;;;4.25;2.13;;;;;;;;;;8238278;28;20027;-72
2023/07/24 06:13:40;;;;;;;4.38;2.40;;;;;;;;;;8239753;28;20018;-72
2023/07/24 06:17:40;;;;;;;4.05;2.22;;;;;;;;;;8237278;28;20034;-72
2023/07/24 06:21:40;;;;;;;3.53;2.30;;;;;;;;;;8235241;28;20030;-72
2023/07/24 06:25:41;;;;;;;3.47;2.35;;;;;;;;;;8233544;28;20501;-72
2023/07/24 06:29:41;;;;;;;4.25;2.47;;;;;;;;;;8239536;28;20018;-72
2023/07/24 06:33:41;;;;;;;2.75;2.13;;;;;;;;;;8238949;28;20132;-72
2023/07/24 06:37:41;;;;;;;4.30;2.20;;;;;;;;;;8238578;28;20041;-71
2023/07/24 06:41:42;;;;;;;2.50;2.20;;;;;;;;;;8243362;28;20033;-72
2023/07/24 06:45:42;;;;;;;2.60;2.15;;;;;;;;;;8242260;28;20035;-72
2023/07/24 06:49:42;;;;;;;2.67;2.40;;;;;;;;;;8241804;28;20187;-72
2023/07/24 06:53:42;;;;;;;2.83;2.50;;;;;;;;;;8244380;28;20034;-72
2023/07/24 06:57:42;;;;;;;8.73;2.30;;;;;;;;;;8244948;28;20029;-73
2023/07/24 07:01:43;;;;;;;3.15;2.22;;;;;;;;;;8242838;28;20042;-72
2023/07/24 07:05:43;;;;;;;2.93;2.00;;;;;;;;;;8244554;28;20026;-72
2023/07/24 07:09:43;;;;;;;2.28;1.90;;;;;;;;;;8246256;28;20036;-72
2023/07/24 07:13:43;;;;;;;4.63;2.20;;;;;;;;;;8243110;28;20651;-72
2023/07/24 07:17:44;;;;;;;5.85;2.00;;;;;;;;;;8241013;28;20035;-72
2023/07/24 07:21:44;;;;;;;6.10;2.00;;;;;;;;;;8243245;28;20136;-72
2023/07/24 07:25:47;;;;;;;2.55;1.83;;;;;;;;;;8247099;28;20030;-71
2023/07/24 07:29:47;;;;;;;3.08;1.92;;;;;;;;;;8241638;28;20156;-72
2023/07/24 07:33:48;;;;;;;2.28;2.08;;;;;;;;;;8242576;28;20140;-72
2023/07/24 07:37:48;;;;;;;2.22;1.92;;;;;;;;;;8241191;28;20029;-72
2023/07/24 07:41:49;;;;;;;1.90;1.80;;;;;;;;;;8242559;28;20071;-72
2023/07/24 07:45:49;;;;;;;2.20;2.00;;;;;;;;;;8244491;28;20036;-73
2023/07/24 07:49:49;;;;;;;3.00;1.90;;;;;;;;;;8234397;28;20083;-72
2023/07/24 07:53:49;;;;;;;2.10;1.57;;;;;;;;;;8241696;28;20028;-72
2023/07/24 07:57:49;;;;;;;1.80;1.70;;;;;;;;;;8243134;28;20048;-72
2023/07/24 08:01:50;;;;;;;2.83;1.90;;;;;;;;;;8239614;28;20037;-72
2023/07/24 08:05:50;;;;;;;3.08;1.90;;;;;;;;;;8232978;28;20106;-72
2023/07/24 08:09:50;;;;;;;2.70;1.90;;;;;;;;;;8243828;28;20030;-72
2023/07/24 08:13:50;;;;;;;1.95;1.80;;;;;;;;;;8242955;28;20028;-72
2023/07/24 08:17:50;;;;;;;4.80;2.25;;;;;;;;;;8242258;28;20033;-72
2023/07/24 08:21:51;;;;;;;3.92;2.10;;;;;;;;;;8240489;28;20027;-72
2023/07/24 08:25:54;;;;;;;5.07;2.00;;;;;;;;;;8245015;28;20030;-71
2023/07/24 08:29:55;;;;;;;4.50;2.45;;;;;;;;;;8243199;28;20103;-72
2023/07/24 08:33:55;;;;;;;2.90;2.17;;;;;;;;;;8223140;28;20073;-72
2023/07/24 08:37:55;;;;;;;3.78;2.40;;;;;;;;;;8242529;28;20480;-71
2023/07/24 08:41:56;;;;;;;2.50;2.23;;;;;;;;;;8240036;28;20030;-72
2023/07/24 08:45:57;;;;;;;3.83;2.50;;;;;;;;;;8236107;28;20058;-71
2023/07/24 08:49:58;;;;;;;4.82;2.10;;;;;;;;;;8232811;28;20494;-71
2023/07/24 08:53:59;;;;;;;2.67;2.30;;;;;;;;;;8239908;28;20036;-71
2023/07/24 08:57:59;;;;;;;3.25;2.70;;;;;;;;;;8240429;28;20026;-71
2023/07/24 09:01:59;;;;;;;2.60;2.40;;;;;;;;;;8237829;28;21061;-72
2023/07/24 09:06:09;;;;;;;2.60;2.40;;;;;;;;;;8239526;28;20026;-69
2023/07/24 09:10:09;;;;;;;4.70;2.40;;;;;;;;;;8236858;28;20034;-69
2023/07/24 09:14:19;;;;;;;3.50;2.83;;;;;;;;;;8239458;28;20803;-69
2023/07/24 09:18:19;;;;;;;3.85;3.00;;;;;;;;;;8238659;28;20554;-69
2023/07/24 09:22:20;;;;;;;3.85;2.60;;;;;;;;;;8238799;28;20409;-69
2023/07/24 09:26:20;;;;;;;6.07;2.83;;;;;;;;;;8239701;28;20064;-69
2023/07/24 09:30:23;;;;;;;2.97;2.63;;;;;;;;;;8237448;28;20029;-70
2023/07/24 09:34:25;;;;;;;3.05;2.67;;;;;;;;;;8240541;28;20060;-70
2023/07/24 09:38:25;;;;;;;5.57;3.08;;;;;;;;;;8239417;28;20094;-69
2023/07/24 09:42:29;;;;;;;3.78;2.92;;;;;;;;;;8240612;28;20041;-69
2023/07/24 09:46:31;;;;;;;4.95;3.17;;;;;;;;;;8239142;28;20041;-69
2023/07/24 09:50:32;;;;;;;3.17;2.80;;;;;;;;;;8239512;28;20104;-69
2023/07/24 09:54:40;;;;;;;4.80;2.80;;;;;;;;;;8239871;28;20069;-69
2023/07/24 09:58:41;;;;;;;3.35;2.92;;;;;;;;;;8239959;28;20026;-69
2023/07/24 10:02:41;;;;;;;4.90;2.93;;;;;;;;;;8237271;28;20053;-69
2023/07/24 10:06:43;;;;;;;3.35;2.90;;;;;;;;;;8239147;28;20308;-69
2023/07/24 10:10:43;;;;;;;3.25;2.95;;;;;;;;;;8238385;28;20030;-69
2023/07/24 10:14:44;;;;;;;2.80;2.60;;;;;;;;;;8240506;28;20029;-69
2023/07/24 10:18:45;;;;;;;4.32;3.03;;;;;;;;;;8237961;28;20281;-69
2023/07/24 10:22:46;;;;;;;5.60;2.90;;;;;;;;;;8235902;28;20026;-69
2023/07/24 10:26:46;;;;;;;3.50;2.70;;;;;;;;;;8235345;28;20021;-69
2023/07/24 10:30:54;;;;;;;4.60;2.87;;;;;;;;;;8237464;28;20088;-69
2023/07/24 10:34:55;;;;;;;4.72;2.70;;;;;;;;;;8234172;28;20513;-69
2023/07/24 10:38:56;;;;;;;3.83;2.90;;;;;;;;;;8238264;28;20094;-69
2023/07/24 10:43:17;;;;;;;3.33;2.90;;;;;;;;;;8239459;28;20407;-69
2023/07/24 10:47:20;;;;;;;3.63;3.20;;;;;;;;;;8236670;28;20129;-69
2023/07/24 10:51:21;;;;;;;3.78;3.08;;;;;;;;;;8237347;28;20034;-69
2023/07/24 10:55:24;;;;;;;3.30;2.88;;;;;;;;;;8222919;28;20026;-69
2023/07/24 10:59:34;;;;;;;3.38;2.95;;;;;;;;;;8225138;28;20140;-69
2023/07/24 11:03:39;;;;;;;5.65;3.00;;;;;;;;;;8232464;28;20042;-69
2023/07/24 11:07:40;;;;;;;4.13;3.20;;;;;;;;;;8233176;28;20064;-69
2023/07/24 11:11:40;;;;;;;3.40;3.00;;;;;;;;;;8235855;28;20023;-68
2023/07/24 11:15:40;;;;;;;3.50;3.20;;;;;;;;;;8233235;28;20469;-69
2023/07/24 11:19:40;;;;;;;4.95;3.80;;;;;;;;;;8234680;28;20026;-68
2023/07/24 11:23:47;;;;;;;4.22;3.58;;;;;;;;;;8232595;28;20038;-68
2023/07/24 11:27:47;;;;;;;4.05;3.40;;;;;;;;;;8234208;28;20029;-69
2023/07/24 11:31:53;;;;;;;4.22;3.45;;;;;;;;;;8239562;28;21996;-68
2023/07/24 11:35:53;;;;;;;5.13;3.30;;;;;;;;;;8240237;28;20037;-69
2023/07/24 11:40:08;;;;;;;4.37;3.10;;;;;;;;;;8241855;28;20023;-69
2023/07/24 11:44:08;;;;;;;4.00;3.58;;;;;;;;;;8235858;28;20866;-68
2023/07/24 11:48:11;;;;;;;5.57;3.10;;;;;;;;;;8233788;28;20921;-69
2023/07/24 11:52:11;;;;;;;3.78;2.90;;;;;;;;;;8230958;28;20846;-69
2023/07/24 11:56:15;;;;;;;4.83;3.10;;;;;;;;;;8244324;28;20034;-69
2023/07/24 12:00:19;;;;;;;3.47;2.75;;;;;;;;;;8241202;28;20026;-69
2023/07/24 12:04:20;;;;;;;3.45;3.15;;;;;;;;;;8242454;28;20018;-68
2023/07/24 12:08:29;;;;;;;4.30;2.90;;;;;;;;;;8239212;28;20497;-68
2023/07/24 12:12:39;;;;;;;5.03;2.90;;;;;;;;;;8223926;28;20048;-69
2023/07/24 12:16:39;;;;;;;4.45;3.25;;;;;;;;;;8244052;28;20054;-69
2023/07/24 12:20:40;;;;;;;6.13;3.00;;;;;;;;;;8242233;28;20529;-69
2023/07/24 12:24:40;;;;;;;3.67;3.05;;;;;;;;;;8240797;28;20022;-69
2023/07/24 12:28:40;;;;;;;3.75;3.15;;;;;;;;;;8216324;28;20579;-69
2023/07/24 12:32:40;;;;;;;5.35;3.42;;;;;;;;;;8240526;28;20157;-69
2023/07/24 12:36:41;;;;;;;3.92;3.20;;;;;;;;;;8235183;28;20023;-69
2023/07/24 12:40:41;;;;;;;4.25;3.17;;;;;;;;;;8239777;28;20904;-69
2023/07/24 12:44:41;;;;;;;7.88;3.30;;;;;;;;;;8240064;28;20037;-69
2023/07/24 12:48:42;;;;;;;3.47;3.17;;;;;;;;;;8234345;28;20034;-69
2023/07/24 12:52:42;;;;;;;5.55;3.38;;;;;;;;;;8237478;28;20137;-69
2023/07/24 12:56:43;;;;;;;5.13;3.40;;;;;;;;;;8234802;28;20052;-69
2023/07/24 13:00:43;;;;;;;12.20;3.60;;;;;;;;;;8237139;28;20065;-68
2023/07/24 13:04:44;;;;;;;9.32;4.43;;;;;;;;;;8237747;28;20036;-72
2023/07/24 13:08:44;;;;;;;10.25;4.32;;;;;;;;;;8238222;28;20989;-73
2023/07/24 13:12:44;;;;;;;8.70;4.67;;;;;;;;;;8242416;28;20120;-69
2023/07/24 13:16:45;;;;;;;5.63;4.00;;;;;;;;;;8240410;28;20331;-68
2023/07/24 13:20:45;;;;;;;6.35;3.80;;;;;;;;;;8239333;28;20096;-68
2023/07/24 13:24:45;;;;;;;5.97;3.70;;;;;;;;;;8242106;28;21023;-68
2023/07/24 13:28:45;;;;;;;5.60;3.80;;;;;;;;;;8238387;28;20034;-68
2023/07/24 13:32:46;;;;;;;4.17;3.20;;;;;;;;;;8222705;28;20042;-68
2023/07/24 13:36:49;;;;;;;4.00;3.60;;;;;;;;;;8239760;28;20156;-68
2023/07/24 13:40:49;;;;;;;;;;;;;;;;;;8240348;28;22093;-69
2023/07/24 13:44:50;;;;;;;5.15;3.75;;;;;;;;;;8238245;28;20801;-68
2023/07/24 13:48:51;;;;;;;3.40;3.10;;;;;;;;;;8220987;28;20034;-68
2023/07/24 13:52:51;;;;;;;3.58;2.95;;;;;;;;;;8227126;28;20025;-68
2023/07/24 13:56:52;;;;;;;4.33;3.20;;;;;;;;;;8230873;28;21009;-71
2023/07/24 14:00:52;;;;;;;3.00;2.80;;;;;;;;;;8238187;28;20495;-70
2023/07/24 14:04:53;;;;;;;3.30;3.00;;;;;;;;;;8234962;28;20026;-70
2023/07/24 14:08:53;;;;;;;2.63;2.42;;;;;;;;;;8236162;28;20050;-70
2023/07/24 14:12:53;;;;;;;2.33;2.13;;;;;;;;;;8236482;28;20928;-70
2023/07/24 14:16:54;;;;;;;2.70;2.50;;;;;;;;;;8227635;28;20760;-70
2023/07/24 14:20:56;;;;;;;2.92;2.30;;;;;;;;;;8231245;28;20133;-70
2023/07/24 14:24:56;;;;;;;2.42;2.22;;;;;;;;;;8235340;28;20022;-70
2023/07/24 14:28:56;;;;;;;2.23;1.87;;;;;;;;;;8236773;28;20049;-71
2023/07/24 14:32:57;;;;;;;2.85;2.30;;;;;;;;;;8234001;28;20034;-70
2023/07/24 14:36:57;;;;;;;2.25;2.05;;;;;;;;;;8232775;28;20022;-70
2023/07/24 14:40:57;;;;;;;2.47;2.25;;;;;;;;;;8238867;28;20112;-70
2023/07/24 14:45:01;;;;;;;2.17;2.05;;;;;;;;;;8239487;28;20030;-70
2023/07/24 14:49:02;;;;;;;2.20;2.00;;;;;;;;;;8235309;28;20092;-70
2023/07/24 14:53:02;;;;;;;1.92;1.77;;;;;;;;;;8238326;28;20026;-70
2023/07/24 14:57:02;;;;;;;1.92;1.70;;;;;;;;;;8236671;28;20054;-70
2023/07/24 15:01:02;;;;;;;2.83;1.63;;;;;;;;;;8238094;28;20709;-71
2023/07/24 15:05:03;;;;;;;1.65;1.50;;;;;;;;;;8245803;28;20030;-70
2023/07/24 15:09:04;;;;;;;1.75;1.50;;;;;;;;;;8243447;28;20058;-70
2023/07/24 15:13:05;;;;;;;2.00;1.80;;;;;;;;;;8246386;28;20100;-71
2023/07/24 15:17:06;;;;;;;1.83;1.50;;;;;;;;;;8241125;28;20273;-70
2023/07/24 15:21:07;;;;;;;1.70;1.60;;;;;;;;;;8242873;28;21104;-71
2023/07/24 15:25:09;;;;;;;2.40;1.60;;;;;;;;;;8245705;28;20820;-71
2023/07/24 15:29:09;;;;;;;1.50;1.40;;;;;;;;;;8242430;28;20037;-71
2023/07/24 15:33:09;;;;;;;1.20;1.10;;;;;;;;;;8245792;28;20038;-71
2023/07/24 15:37:10;;;;;;;3.72;1.20;;;;;;;;;;8243028;28;20088;-71
2023/07/24 15:41:11;;;;;;;1.10;1.00;;;;;;;;;;8222634;28;20054;-71
2023/07/24 15:45:11;;;;;;;1.10;1.00;;;;;;;;;;8220305;28;20108;-71
2023/07/24 15:49:12;;;;;;;1.20;1.10;;;;;;;;;;8238072;28;20045;-71
2023/07/24 15:53:12;;;;;;;1.35;1.00;;;;;;;;;;8229888;28;20288;-71
2023/07/24 15:57:13;;;;;;;0.93;0.93;;;;;;;;;;8241135;28;20026;-71
2023/07/24 16:01:13;;;;;;;1.65;0.93;;;;;;;;;;8235465;28;20030;-71
2023/07/24 16:05:17;;;;;;;2.90;1.00;;;;;;;;;;8243369;28;20093;-71
2023/07/24 16:09:18;;;;;;;0.80;0.80;;;;;;;;;;8233100;28;20030;-70
2023/07/24 16:13:18;;;;;;;1.08;0.80;;;;;;;;;;8243524;28;20037;-70
2023/07/24 16:17:20;;;;;;;1.08;0.98;;;;;;;;;;8226714;28;20089;-70
2023/07/24 16:21:21;;;;;;;1.20;1.10;;;;;;;;;;8237893;28;20169;-69
2023/07/24 16:25:22;;;;;;;1.08;1.08;;;;;;;;;;8216319;28;20037;-69
2023/07/24 16:29:22;;;;;;;1.10;1.02;;;;;;;;;;8237807;28;20026;-69
2023/07/24 16:33:23;;;;;;;1.10;1.00;;;;;;;;;;8239593;28;20100;-69
2023/07/24 16:37:24;;;;;;;2.47;1.08;;;;;;;;;;8229698;28;20141;-69
2023/07/24 16:41:25;;;;;;;1.10;1.10;;;;;;;;;;8242562;28;20117;-69
2023/07/24 16:45:25;;;;;;;2.33;1.23;;;;;;;;;;8239550;28;20054;-69
2023/07/24 16:49:27;;;;;;;1.85;1.10;;;;;;;;;;8226498;28;20043;-70
2023/07/24 16:53:29;;;;;;;1.23;1.13;;;;;;;;;;8220701;28;20026;-70
2023/07/24 16:57:29;;;;;;;2.33;1.23;;;;;;;;;;8224027;28;20022;-70
2023/07/24 17:01:31;;;;;;;1.13;1.10;;;;;;;;;;8230489;28;20045;-69
2023/07/24 17:05:31;;;;;;;1.60;1.10;;;;;;;;;;8251558;28;20064;-70
2023/07/24 17:09:33;;;;;;;1.42;1.33;;;;;;;;;;8257356;28;20034;-70
2023/07/24 17:13:35;;;;;;;1.15;1.05;;;;;;;;;;8264389;28;20030;-71
2023/07/24 17:17:36;;;;;;;2.23;1.20;;;;;;;;;;8274472;28;20046;-71
2023/07/24 17:21:37;;;;;;;2.50;1.23;;;;;;;;;;8269552;28;20113;-70
2023/07/24 17:25:39;;;;;;;1.85;1.35;;;;;;;;;;8242968;28;20096;-70
2023/07/24 17:29:40;;;;;;;1.58;1.20;;;;;;;;;;8267445;28;20021;-74
2023/07/24 17:33:42;;;;;;;5.75;1.40;;;;;;;;;;8264854;28;20046;-72
2023/07/24 17:37:44;;;;;;;1.73;1.40;;;;;;;;;;8289187;28;20030;-71
2023/07/24 17:41:45;;;;;;;2.08;1.30;;;;;;;;;;8282365;28;20222;-71
2023/07/24 17:45:47;;;;;;;3.40;1.42;;;;;;;;;;8268215;28;20034;-72
2023/07/24 17:49:47;;;;;;;1.10;1.00;;;;;;;;;;8277212;28;20548;-72
2023/07/24 17:53:47;;;;;;;1.40;1.30;;;;;;;;;;8279423;28;20625;-73
2023/07/24 17:57:50;;;;;;;2.65;1.45;;;;;;;;;;8296278;28;20037;-71
2023/07/24 18:01:52;;;;;;;2.93;1.23;;;;;;;;;;8292056;28;20042;-71
2023/07/24 18:05:56;;;;;;;1.93;1.30;;;;;;;;;;8266410;28;20113;-72
2023/07/24 18:09:56;;;;;;;3.25;1.23;;;;;;;;;;8275003;28;20745;-71
2023/07/24 18:13:56;;;;;;;1.40;1.30;;;;;;;;;;8267762;28;20024;-70
2023/07/24 18:17:56;;;;;;;1.17;1.15;;;;;;;;;;8293579;28;20054;-76
2023/07/24 18:21:57;;;;;;;1.73;1.10;;;;;;;;;;8292318;28;20028;-71
2023/07/24 18:25:57;;;;;;;2.55;1.52;;;;;;;;;;8278674;28;20022;-70
2023/07/24 18:30:28;;;;;;;1.05;1.02;;;;;;;;;;8264152;28;20049;-70
2023/07/24 18:34:30;;;;;;;2.17;1.20;;;;;;;;;;8276662;28;20049;-71
2023/07/24 18:38:30;;;;;;;2.50;1.33;;;;;;;;;;8283262;28;20046;-70
2023/07/24 18:42:30;;;;;;;1.95;1.35;;;;;;;;;;8278417;28;20033;-73
2023/07/24 18:46:31;;;;;;;5.00;1.27;;;;;;;;;;8292654;28;20041;-73
2023/07/24 18:50:35;;;;;;;2.70;1.30;;;;;;;;;;8288487;28;20026;-71
2023/07/24 18:54:36;;;;;;;2.63;1.13;;;;;;;;;;8288278;28;20068;-70
2023/07/24 18:58:36;;;;;;;4.30;1.40;;;;;;;;;;8269715;28;20030;-70
2023/07/24 19:02:36;;;;;;;2.03;1.40;;;;;;;;;;8253778;28;20038;-69
2023/07/24 19:06:37;;;;;;;2.88;1.27;;;;;;;;;;8253804;28;20343;-70
2023/07/24 19:10:37;;;;;;;5.43;1.42;;;;;;;;;;8255013;28;20026;-70
2023/07/24 19:14:39;;;;;;;1.63;1.30;;;;;;;;;;8248890;28;20128;-70
2023/07/24 19:18:40;;;;;;;4.03;1.73;;;;;;;;;;8258726;28;20426;-70
2023/07/24 19:22:41;;;;;;;4.10;1.63;;;;;;;;;;8250585;28;20915;-78
2023/07/24 19:26:43;;;;;;;1.52;1.15;;;;;;;;;;8259351;28;20040;-73
2023/07/24 19:30:43;;;;;;;2.40;1.20;;;;;;;;;;8265764;28;20060;-73
2023/07/24 19:34:44;;;;;;;1.52;1.35;;;;;;;;;;8250266;28;20036;-73
2023/07/24 19:38:44;;;;;;;2.87;1.30;;;;;;;;;;8245206;28;20027;-72
2023/07/24 19:42:44;;;;;;;4.73;1.20;;;;;;;;;;8247867;28;20052;-72
2023/07/24 19:46:44;;;;;;;2.75;1.48;;;;;;;;;;8235712;28;20054;-72
2023/07/24 19:50:54;;;;;;;3.00;1.20;;;;;;;;;;8248000;28;20974;-72
2023/07/24 19:54:54;;;;;;;1.45;1.20;;;;;;;;;;8246510;28;20030;-73
2023/07/24 19:58:54;;;;;;;2.92;1.50;;;;;;;;;;8243902;28;20152;-73
2023/07/24 20:02:55;;;;;;;1.55;1.20;;;;;;;;;;8242555;28;20025;-73
2023/07/24 20:06:55;;;;;;;4.07;1.20;;;;;;;;;;8241741;28;20025;-74
2023/07/24 20:10:56;;;;;;;1.98;1.20;;;;;;;;;;8246570;28;20030;-72
2023/07/24 20:14:56;;;;;;;2.28;1.30;;;;;;;;;;8240194;28;20669;-73
2023/07/24 20:18:57;;;;;;;3.17;1.30;;;;;;;;;;8241756;28;20041;-73
2023/07/24 20:22:58;;;;;;;3.70;1.23;;;;;;;;;;8245114;28;20025;-72
2023/07/24 20:26:58;;;;;;;1.27;1.00;;;;;;;;;;8242566;28;20284;-72
2023/07/24 20:30:58;;;;;;;1.67;0.90;;;;;;;;;;8241763;28;20041;-73
2023/07/24 20:34:59;;;;;;;1.85;1.10;;;;;;;;;;8233766;28;20034;-72
2023/07/24 20:38:59;;;;;;;2.58;1.00;;;;;;;;;;8240804;28;20018;-71
2023/07/24 20:43:00;;;;;;;2.70;1.20;;;;;;;;;;8223168;28;20033;-72
2023/07/24 20:47:00;;;;;;;1.20;1.05;;;;;;;;;;8243122;28;20042;-72
2023/07/24 20:51:00;;;;;;;1.40;1.30;;;;;;;;;;8241429;28;20034;-72
2023/07/24 20:55:01;;;;;;;3.35;1.10;;;;;;;;;;8242609;28;20023;-73
2023/07/24 20:59:02;;;;;;;0.85;0.85;;;;;;;;;;8240851;28;20033;-71
2023/07/24 21:03:02;;;;;;;1.27;0.88;;;;;;;;;;8236289;28;20821;-70
2023/07/24 21:07:02;;;;;;;1.75;1.10;;;;;;;;;;8232401;28;20052;-71
2023/07/24 21:11:02;;;;;;;1.20;1.10;;;;;;;;;;8234378;28;20972;-71
2023/07/24 21:15:03;;;;;;;2.00;1.20;;;;;;;;;;8230470;28;20029;-71
2023/07/24 21:19:04;;;;;;;1.38;1.05;;;;;;;;;;8237882;28;20022;-71
2023/07/24 21:23:04;;;;;;;2.38;1.10;;;;;;;;;;8224697;28;20121;-72
2023/07/24 21:27:04;;;;;;;1.93;1.13;;;;;;;;;;8239927;28;20034;-71
2023/07/24 21:31:08;;;;;;;1.40;1.03;;;;;;;;;;8218616;28;20149;-71
2023/07/24 21:35:09;;;;;;;1.33;1.15;;;;;;;;;;8237166;28;20023;-71
2023/07/24 21:39:10;;;;;;;1.15;1.00;;;;;;;;;;8227087;28;20092;-72
2023/07/24 21:43:10;;;;;;;2.70;0.90;;;;;;;;;;8238035;28;20097;-71
2023/07/24 21:47:11;;;;;;;1.00;1.00;;;;;;;;;;8220460;28;20042;-71
2023/07/24 21:51:11;;;;;;;1.20;1.10;;;;;;;;;;8234975;28;20026;-71
2023/07/24 21:55:11;;;;;;;1.00;1.00;;;;;;;;;;8236561;28;20303;-71
2023/07/24 21:59:12;;;;;;;1.20;1.10;;;;;;;;;;8234350;28;20053;-71
2023/07/24 22:03:12;;;;;;;1.65;1.00;;;;;;;;;;8237126;28;20394;-71
2023/07/24 22:07:12;;;;;;;1.23;1.10;;;;;;;;;;8220077;28;20057;-71
2023/07/24 22:11:13;;;;;;;1.20;1.10;;;;;;;;;;8238019;28;20079;-71
2023/07/24 22:15:14;;;;;;;2.78;0.88;;;;;;;;;;8239013;28;20026;-72
2023/07/24 22:19:14;;;;;;;1.55;1.08;;;;;;;;;;8232159;28;20042;-71
2023/07/24 22:23:15;;;;;;;1.45;1.10;;;;;;;;;;8240194;28;20141;-71
2023/07/24 22:27:15;;;;;;;1.60;1.20;;;;;;;;;;8234828;28;20037;-71
2023/07/24 22:31:15;;;;;;;1.10;1.00;;;;;;;;;;8233997;28;20053;-71
2023/07/24 22:35:15;;;;;;;2.70;1.20;;;;;;;;;;8239163;28;20492;-70
2023/07/24 22:39:16;;;;;;;3.78;1.05;;;;;;;;;;8234495;28;20026;-71
2023/07/24 22:43:16;;;;;;;2.45;1.10;;;;;;;;;;8239633;28;20034;-71
2023/07/24 22:47:16;;;;;;;1.42;1.23;;;;;;;;;;8238157;28;20906;-71
2023/07/24 22:51:16;;;;;;;1.17;1.08;;;;;;;;;;8240700;28;20817;-71
2023/07/24 22:55:18;;;;;;;3.60;1.10;;;;;;;;;;8242024;28;20121;-71
2023/07/24 22:59:28;;;;;;;2.10;1.00;;;;;;;;;;8242595;28;20031;-71
2023/07/24 23:03:28;;;;;;;1.27;1.10;;;;;;;;;;8241231;28;20042;-71
2023/07/24 23:07:28;;;;;;;1.00;1.00;;;;;;;;;;8240326;28;20037;-71
2023/07/24 23:11:28;;;;;;;1.00;1.00;;;;;;;;;;8241092;28;20132;-72
2023/07/24 23:15:28;;;;;;;3.70;1.10;;;;;;;;;;8240634;28;20441;-72
2023/07/24 23:19:29;;;;;;;1.00;1.00;;;;;;;;;;8242566;28;20025;-72
2023/07/24 23:23:29;;;;;;;5.47;1.20;;;;;;;;;;8241497;28;20068;-71
2023/07/24 23:27:29;;;;;;;2.70;1.80;;;;;;;;;;8246722;28;20022;-71
2023/07/24 23:31:29;;;;;;;2.25;1.60;;;;;;;;;;8246503;28;21870;-71
2023/07/24 23:35:31;;;;;;;3.92;1.73;;;;;;;;;;8248016;28;20022;-71
2023/07/24 23:39:31;;;;;;;2.15;1.40;;;;;;;;;;8249414;28;20026;-72
2023/07/24 23:43:31;;;;;;;3.33;1.10;;;;;;;;;;8225569;28;20038;-71
2023/07/24 23:47:32;;;;;;;1.87;1.13;;;;;;;;;;8243719;28;20043;-71
2023/07/24 23:51:32;;;;;;;3.20;1.40;;;;;;;;;;8245603;28;20086;-72
2023/07/24 23:55:32;;;;;;;2.45;1.20;;;;;;;;;;8247682;28;20935;-72
2023/07/24 23:59:32;;;;;;;2.95;1.20;;;;;;;;;;8244475;28;20041;-72
